Main page
METAR-TAF:

METAR-TAF

Airports :

RAF Leeming

Leeming, England

latitude: 54-18N, longitude: 001-32W, elevation: 40 m

Current weather observation

The report was made 23 minutes ago, at 05:50 UTC
Wind 9 kt from the South/Southeast
Temperature 14°C
Humidity 94%
Pressure 1008 hPa
Visibility: 8000 m
mist

METAR: EGXE 190550Z AUTO 16009KT 8000 BR BKN012/// BKN120/// 14/13 Q1008

Time: 07:13 (06:13 UTC)

Forecast

The report was made 16 hours and 39 minutes ago, at 13:34 UTC
Forecast valid from 18 at 15 UTC to 18 at 18 UTC
Wind 10 kt from the South/Southeast
Visibility: 8000 m
Few clouds at a height of 1000 ft
haze
Temporary
from 18 at 15 UTC to 18 at 18 UTC
Visibility: 4000 m
Broken clouds at a height of 500 ft
light rain, drizzle

TAF: EGXE 181334Z 1815/1818 15010KT 8000 HZ FEW010 TEMPO 1815/1818 4000 -RADZ BKN005

Weather observations and forecasts of more than 4000 airports (METAR and TAF reports).

The available stations are represented by yellow and red dots on the map.

Hover mouse over dot to see the name of the station.

Then click to see weather observations and forecasts.

To change the map : click on the green buttons with a black cross to zoom in, on the green button with a dash to zoom out, or on the green arrows for adjacent maps.


METAR-TAF: